sensor_id;sensor_type;location;lat;lon;timestamp;pressure;altitude;pressure_sealevel;temperature;humidity
20942;BME280;10630;53.734;10.282;2023-04-10T00:01:34;102178.94;;;10.98;75.80
20942;BME280;10630;53.734;10.282;2023-04-10T00:04:02;102185.59;;;11.13;76.10
20942;BME280;10630;53.734;10.282;2023-04-10T00:06:30;102183.28;;;11.39;75.64
20942;BME280;10630;53.734;10.282;2023-04-10T00:08:58;102175.84;;;11.33;74.92
20942;BME280;10630;53.734;10.282;2023-04-10T00:11:25;102176.66;;;11.24;74.59
20942;BME280;10630;53.734;10.282;2023-04-10T00:13:53;102179.66;;;11.50;73.77
20942;BME280;10630;53.734;10.282;2023-04-10T00:16:23;102176.44;;;11.47;73.16
20942;BME280;10630;53.734;10.282;2023-04-10T00:18:51;102163.06;;;11.17;73.43
20942;BME280;10630;53.734;10.282;2023-04-10T00:21:20;102165.66;;;11.07;74.50
20942;BME280;10630;53.734;10.282;2023-04-10T00:23:48;102155.47;;;11.22;73.97
20942;BME280;10630;53.734;10.282;2023-04-10T00:26:15;102155.88;;;11.18;73.45
20942;BME280;10630;53.734;10.282;2023-04-10T00:28:42;102153.53;;;10.84;74.81
20942;BME280;10630;53.734;10.282;2023-04-10T00:31:10;102146.50;;;11.14;74.96
20942;BME280;10630;53.734;10.282;2023-04-10T00:33:37;102152.66;;;11.14;73.44
20942;BME280;10630;53.734;10.282;2023-04-10T00:36:04;102155.84;;;10.98;73.09
20942;BME280;10630;53.734;10.282;2023-04-10T00:38:31;102153.66;;;10.82;74.86
20942;BME280;10630;53.734;10.282;2023-04-10T00:40:59;102152.72;;;10.62;75.75
20942;BME280;10630;53.734;10.282;2023-04-10T00:43:27;102146.31;;;10.65;75.77
20942;BME280;10630;53.734;10.282;2023-04-10T00:45:54;102148.31;;;10.82;74.64
20942;BME280;10630;53.734;10.282;2023-04-10T00:48:22;102142.34;;;10.90;74.35
20942;BME280;10630;53.734;10.282;2023-04-10T00:50:50;102146.31;;;11.05;73.88
20942;BME280;10630;53.734;10.282;2023-04-10T00:53:18;102141.66;;;10.98;72.75
20942;BME280;10630;53.734;10.282;2023-04-10T00:55:48;102141.09;;;10.94;73.24
20942;BME280;10630;53.734;10.282;2023-04-10T00:58:17;102146.88;;;10.99;72.63
20942;BME280;10630;53.734;10.282;2023-04-10T01:00:45;102146.63;;;10.81;73.06
20942;BME280;10630;53.734;10.282;2023-04-10T01:03:14;102146.41;;;10.94;72.95
20942;BME280;10630;53.734;10.282;2023-04-10T01:06:29;102143.28;;;10.79;72.50
20942;BME280;10630;53.734;10.282;2023-04-10T01:08:46;102131.31;;;11.04;72.29
20942;BME280;10630;53.734;10.282;2023-04-10T01:13:52;102130.72;;;10.91;73.88
20942;BME280;10630;53.734;10.282;2023-04-10T01:16:30;102139.31;;;10.73;74.76
20942;BME280;10630;53.734;10.282;2023-04-10T01:19:12;102143.63;;;10.96;75.29
20942;BME280;10630;53.734;10.282;2023-04-10T01:21:40;102135.53;;;11.17;73.22
20942;BME280;10630;53.734;10.282;2023-04-10T01:24:20;102132.16;;;11.05;74.60
20942;BME280;10630;53.734;10.282;2023-04-10T01:29:39;102138.38;;;11.25;72.63
20942;BME280;10630;53.734;10.282;2023-04-10T01:32:10;102131.91;;;11.18;72.82
20942;BME280;10630;53.734;10.282;2023-04-10T01:34:42;102126.72;;;10.75;74.65
20942;BME280;10630;53.734;10.282;2023-04-10T01:37:19;102126.00;;;11.14;75.21
20942;BME280;10630;53.734;10.282;2023-04-10T01:39:53;102123.50;;;11.13;75.00
20942;BME280;10630;53.734;10.282;2023-04-10T01:42:22;102127.56;;;11.17;74.44
20942;BME280;10630;53.734;10.282;2023-04-10T01:44:49;102124.31;;;10.72;75.36
20942;BME280;10630;53.734;10.282;2023-04-10T01:47:19;102120.69;;;11.24;76.49
20942;BME280;10630;53.734;10.282;2023-04-10T01:49:46;102121.16;;;11.29;76.24
20942;BME280;10630;53.734;10.282;2023-04-10T01:52:15;102117.22;;;11.33;76.06
20942;BME280;10630;53.734;10.282;2023-04-10T01:54:44;102111.16;;;11.31;75.45
20942;BME280;10630;53.734;10.282;2023-04-10T01:57:14;102107.69;;;11.40;75.17
20942;BME280;10630;53.734;10.282;2023-04-10T01:59:41;102103.47;;;11.28;75.61
20942;BME280;10630;53.734;10.282;2023-04-10T02:02:09;102105.59;;;11.54;74.52
20942;BME280;10630;53.734;10.282;2023-04-10T02:04:37;102097.50;;;11.05;74.68
20942;BME280;10630;53.734;10.282;2023-04-10T02:12:21;102089.50;;;10.95;78.63
20942;BME280;10630;53.734;10.282;2023-04-10T02:14:49;102086.00;;;10.95;78.52
20942;BME280;10630;53.734;10.282;2023-04-10T02:17:19;102083.63;;;11.11;79.32
20942;BME280;10630;53.734;10.282;2023-04-10T02:19:49;102066.56;;;11.33;78.51
20942;BME280;10630;53.734;10.282;2023-04-10T02:22:18;102064.72;;;11.24;78.29
20942;BME280;10630;53.734;10.282;2023-04-10T02:24:45;102063.38;;;11.49;77.94
20942;BME280;10630;53.734;10.282;2023-04-10T02:27:12;102062.63;;;11.18;80.36
20942;BME280;10630;53.734;10.282;2023-04-10T02:29:40;102050.56;;;11.23;79.75
20942;BME280;10630;53.734;10.282;2023-04-10T02:32:08;102053.91;;;11.16;79.45
20942;BME280;10630;53.734;10.282;2023-04-10T02:34:37;102053.66;;;11.38;79.52
20942;BME280;10630;53.734;10.282;2023-04-10T02:37:03;102052.25;;;11.74;77.47
20942;BME280;10630;53.734;10.282;2023-04-10T02:39:30;102054.22;;;11.42;78.04
20942;BME280;10630;53.734;10.282;2023-04-10T02:41:57;102057.03;;;11.40;78.79
20942;BME280;10630;53.734;10.282;2023-04-10T02:44:24;102064.06;;;11.71;77.10
20942;BME280;10630;53.734;10.282;2023-04-10T02:46:51;102053.38;;;11.71;76.32
20942;BME280;10630;53.734;10.282;2023-04-10T02:49:18;102055.34;;;11.20;78.26
20942;BME280;10630;53.734;10.282;2023-04-10T02:51:44;102048.88;;;11.42;78.53
20942;BME280;10630;53.734;10.282;2023-04-10T02:54:13;102050.59;;;11.53;79.13
20942;BME280;10630;53.734;10.282;2023-04-10T02:56:40;102053.25;;;11.33;79.04
20942;BME280;10630;53.734;10.282;2023-04-10T02:59:06;102046.31;;;11.01;80.41
20942;BME280;10630;53.734;10.282;2023-04-10T03:01:34;102048.06;;;11.22;80.55
20942;BME280;10630;53.734;10.282;2023-04-10T03:04:01;102052.75;;;10.89;81.19
20942;BME280;10630;53.734;10.282;2023-04-10T03:06:29;102040.41;;;10.98;82.20
20942;BME280;10630;53.734;10.282;2023-04-10T03:08:58;102034.13;;;11.08;82.12
20942;BME280;10630;53.734;10.282;2023-04-10T03:11:24;102034.00;;;11.20;81.32
20942;BME280;10630;53.734;10.282;2023-04-10T03:13:51;102033.59;;;11.34;81.13
20942;BME280;10630;53.734;10.282;2023-04-10T03:16:19;102024.75;;;11.53;80.06
20942;BME280;10630;53.734;10.282;2023-04-10T03:18:46;102021.25;;;11.33;80.91
20942;BME280;10630;53.734;10.282;2023-04-10T03:21:13;102023.06;;;11.13;80.88
20942;BME280;10630;53.734;10.282;2023-04-10T03:23:42;102029.34;;;10.83;82.39
20942;BME280;10630;53.734;10.282;2023-04-10T03:26:10;102013.44;;;10.71;85.08
20942;BME280;10630;53.734;10.282;2023-04-10T03:28:37;102015.16;;;10.82;84.29
20942;BME280;10630;53.734;10.282;2023-04-10T03:31:05;102008.50;;;10.57;83.59
20942;BME280;10630;53.734;10.282;2023-04-10T03:33:36;102004.56;;;11.12;83.05
20942;BME280;10630;53.734;10.282;2023-04-10T03:36:04;102004.13;;;11.06;80.75
20942;BME280;10630;53.734;10.282;2023-04-10T03:38:30;102005.66;;;11.38;79.95
20942;BME280;10630;53.734;10.282;2023-04-10T03:40:57;102003.41;;;10.95;81.76
20942;BME280;10630;53.734;10.282;2023-04-10T03:43:24;102008.34;;;10.58;82.96
20942;BME280;10630;53.734;10.282;2023-04-10T03:45:53;102004.81;;;10.89;82.08
20942;BME280;10630;53.734;10.282;2023-04-10T03:48:20;102000.03;;;10.92;81.10
20942;BME280;10630;53.734;10.282;2023-04-10T03:50:47;102002.75;;;11.32;79.55
20942;BME280;10630;53.734;10.282;2023-04-10T03:53:13;101988.56;;;11.51;78.09
20942;BME280;10630;53.734;10.282;2023-04-10T03:55:42;102000.34;;;11.29;77.81
20942;BME280;10630;53.734;10.282;2023-04-10T03:58:09;101993.91;;;11.41;78.36
20942;BME280;10630;53.734;10.282;2023-04-10T04:00:36;102006.25;;;11.22;76.76
20942;BME280;10630;53.734;10.282;2023-04-10T04:03:04;102007.38;;;11.10;78.65
20942;BME280;10630;53.734;10.282;2023-04-10T04:05:30;101995.53;;;10.93;79.91
20942;BME280;10630;53.734;10.282;2023-04-10T04:07:57;102001.75;;;11.03;78.59
20942;BME280;10630;53.734;10.282;2023-04-10T04:10:24;101998.31;;;10.72;80.10
20942;BME280;10630;53.734;10.282;2023-04-10T04:12:51;101992.16;;;10.71;80.72
20942;BME280;10630;53.734;10.282;2023-04-10T04:15:17;102001.41;;;10.77;81.44
20942;BME280;10630;53.734;10.282;2023-04-10T04:17:45;102004.16;;;10.56;83.09
20942;BME280;10630;53.734;10.282;2023-04-10T04:20:12;101996.16;;;10.25;83.01
20942;BME280;10630;53.734;10.282;2023-04-10T04:22:44;101997.13;;;10.55;83.74
20942;BME280;10630;53.734;10.282;2023-04-10T04:25:12;101996.13;;;10.46;84.27
20942;BME280;10630;53.734;10.282;2023-04-10T04:27:39;101994.41;;;10.86;82.35
20942;BME280;10630;53.734;10.282;2023-04-10T04:30:05;101992.97;;;10.62;81.77
20942;BME280;10630;53.734;10.282;2023-04-10T04:32:33;101997.22;;;10.74;82.44
20942;BME280;10630;53.734;10.282;2023-04-10T04:35:00;101991.03;;;10.74;81.53
20942;BME280;10630;53.734;10.282;2023-04-10T04:37:28;101994.88;;;11.01;80.22
20942;BME280;10630;53.734;10.282;2023-04-10T04:39:55;101992.59;;;10.76;80.82
20942;BME280;10630;53.734;10.282;2023-04-10T04:42:24;101994.16;;;10.99;80.69
20942;BME280;10630;53.734;10.282;2023-04-10T04:44:52;101994.16;;;11.08;78.35
20942;BME280;10630;53.734;10.282;2023-04-10T04:47:19;101993.19;;;10.90;79.38
20942;BME280;10630;53.734;10.282;2023-04-10T04:49:46;101985.75;;;11.03;78.43
20942;BME280;10630;53.734;10.282;2023-04-10T04:52:13;101992.63;;;10.96;78.26
20942;BME280;10630;53.734;10.282;2023-04-10T04:54:40;101988.84;;;10.99;78.89
20942;BME280;10630;53.734;10.282;2023-04-10T04:57:06;101982.09;;;11.24;78.10
20942;BME280;10630;53.734;10.282;2023-04-10T04:59:33;101991.09;;;11.03;78.75
20942;BME280;10630;53.734;10.282;2023-04-10T05:02:03;101990.97;;;11.24;77.61
20942;BME280;10630;53.734;10.282;2023-04-10T05:04:33;101986.59;;;11.23;78.54
20942;BME280;10630;53.734;10.282;2023-04-10T05:07:00;101988.53;;;10.92;79.15
20942;BME280;10630;53.734;10.282;2023-04-10T05:09:27;101989.13;;;11.15;79.72
20942;BME280;10630;53.734;10.282;2023-04-10T05:11:55;101992.19;;;11.30;78.44
20942;BME280;10630;53.734;10.282;2023-04-10T05:14:22;101993.06;;;11.31;78.14
20942;BME280;10630;53.734;10.282;2023-04-10T05:16:49;101997.53;;;11.50;77.27
20942;BME280;10630;53.734;10.282;2023-04-10T05:19:16;101995.56;;;11.42;76.58
20942;BME280;10630;53.734;10.282;2023-04-10T05:21:43;101996.97;;;11.56;76.99
20942;BME280;10630;53.734;10.282;2023-04-10T05:24:10;101997.38;;;11.71;76.37
20942;BME280;10630;53.734;10.282;2023-04-10T05:26:38;101988.38;;;11.82;75.45
20942;BME280;10630;53.734;10.282;2023-04-10T05:29:06;101991.16;;;11.90;76.33
20942;BME280;10630;53.734;10.282;2023-04-10T05:31:32;101995.47;;;12.11;75.51
20942;BME280;10630;53.734;10.282;2023-04-10T05:33:59;101984.53;;;11.94;75.97
20942;BME280;10630;53.734;10.282;2023-04-10T05:36:26;101985.13;;;11.88;77.02
20942;BME280;10630;53.734;10.282;2023-04-10T05:38:53;101990.19;;;12.01;76.33
20942;BME280;10630;53.734;10.282;2023-04-10T05:41:20;101985.63;;;12.21;75.73
20942;BME280;10630;53.734;10.282;2023-04-10T05:43:47;101988.25;;;11.74;76.38
20942;BME280;10630;53.734;10.282;2023-04-10T05:46:13;101979.97;;;12.24;76.47
20942;BME280;10630;53.734;10.282;2023-04-10T05:48:40;101981.72;;;12.71;75.08
20942;BME280;10630;53.734;10.282;2023-04-10T05:51:07;101975.25;;;12.92;72.94
20942;BME280;10630;53.734;10.282;2023-04-10T05:53:35;101972.03;;;13.24;71.88
20942;BME280;10630;53.734;10.282;2023-04-10T05:56:02;101968.59;;;12.96;71.41
20942;BME280;10630;53.734;10.282;2023-04-10T05:58:29;101975.25;;;13.10;72.34
20942;BME280;10630;53.734;10.282;2023-04-10T06:00:57;101969.88;;;13.28;72.88
20942;BME280;10630;53.734;10.282;2023-04-10T06:03:23;101972.81;;;13.17;71.83
20942;BME280;10630;53.734;10.282;2023-04-10T06:05:54;101973.25;;;13.48;71.09
20942;BME280;10630;53.734;10.282;2023-04-10T06:08:21;101972.47;;;13.38;70.18
20942;BME280;10630;53.734;10.282;2023-04-10T06:10:48;101974.88;;;13.41;70.04
20942;BME280;10630;53.734;10.282;2023-04-10T06:13:14;101961.03;;;13.27;69.83
20942;BME280;10630;53.734;10.282;2023-04-10T06:15:41;101971.91;;;13.44;70.36
20942;BME280;10630;53.734;10.282;2023-04-10T06:18:09;101957.84;;;13.95;67.29
20942;BME280;10630;53.734;10.282;2023-04-10T06:20:37;101950.97;;;13.66;66.96
20942;BME280;10630;53.734;10.282;2023-04-10T06:23:03;101945.41;;;13.85;67.31
20942;BME280;10630;53.734;10.282;2023-04-10T06:25:31;101941.75;;;13.60;68.20
20942;BME280;10630;53.734;10.282;2023-04-10T06:28:01;101940.63;;;13.71;66.49
20942;BME280;10630;53.734;10.282;2023-04-10T06:30:29;101936.59;;;13.93;66.48
20942;BME280;10630;53.734;10.282;2023-04-10T06:32:59;101926.25;;;13.98;65.90
20942;BME280;10630;53.734;10.282;2023-04-10T06:35:26;101919.94;;;14.07;65.22
20942;BME280;10630;53.734;10.282;2023-04-10T06:37:54;101918.63;;;14.71;63.31
20942;BME280;10630;53.734;10.282;2023-04-10T06:40:22;101912.50;;;14.36;64.40
20942;BME280;10630;53.734;10.282;2023-04-10T06:42:49;101921.13;;;14.13;63.52
20942;BME280;10630;53.734;10.282;2023-04-10T06:45:16;101920.50;;;14.87;62.81
20942;BME280;10630;53.734;10.282;2023-04-10T06:47:43;101912.59;;;14.69;62.26
20942;BME280;10630;53.734;10.282;2023-04-10T06:50:09;101919.19;;;15.16;61.82
20942;BME280;10630;53.734;10.282;2023-04-10T06:52:36;101910.09;;;15.42;60.67
20942;BME280;10630;53.734;10.282;2023-04-10T06:55:04;101912.28;;;15.30;60.19
20942;BME280;10630;53.734;10.282;2023-04-10T06:57:32;101909.06;;;15.51;59.69
20942;BME280;10630;53.734;10.282;2023-04-10T06:59:58;101902.19;;;15.65;58.63
20942;BME280;10630;53.734;10.282;2023-04-10T07:02:26;101896.66;;;15.58;57.70
20942;BME280;10630;53.734;10.282;2023-04-10T07:04:53;101903.91;;;15.08;58.78
20942;BME280;10630;53.734;10.282;2023-04-10T07:07:22;101905.56;;;14.84;58.84
20942;BME280;10630;53.734;10.282;2023-04-10T07:09:50;101909.59;;;15.22;59.34
20942;BME280;10630;53.734;10.282;2023-04-10T07:12:23;101912.44;;;14.95;58.06
20942;BME280;10630;53.734;10.282;2023-04-10T07:14:50;101905.22;;;15.37;58.10
20942;BME280;10630;53.734;10.282;2023-04-10T07:17:17;101910.56;;;15.54;57.99
20942;BME280;10630;53.734;10.282;2023-04-10T07:19:43;101906.00;;;16.27;56.39
20942;BME280;10630;53.734;10.282;2023-04-10T07:22:10;101908.25;;;16.15;55.71
20942;BME280;10630;53.734;10.282;2023-04-10T07:24:39;101904.06;;;16.12;55.69
20942;BME280;10630;53.734;10.282;2023-04-10T07:27:07;101897.72;;;16.05;55.34
20942;BME280;10630;53.734;10.282;2023-04-10T07:29:34;101892.38;;;15.97;55.21
20942;BME280;10630;53.734;10.282;2023-04-10T07:32:00;101901.38;;;16.12;55.88
20942;BME280;10630;53.734;10.282;2023-04-10T07:34:29;101899.88;;;16.41;55.14
20942;BME280;10630;53.734;10.282;2023-04-10T07:36:56;101903.22;;;16.12;54.58
20942;BME280;10630;53.734;10.282;2023-04-10T07:39:25;101891.00;;;16.64;54.06
20942;BME280;10630;53.734;10.282;2023-04-10T07:41:52;101889.72;;;16.52;53.31
20942;BME280;10630;53.734;10.282;2023-04-10T07:44:19;101887.06;;;16.75;53.18
20942;BME280;10630;53.734;10.282;2023-04-10T07:46:47;101889.81;;;17.28;52.11
20942;BME280;10630;53.734;10.282;2023-04-10T07:49:14;101883.84;;;17.56;51.38
20942;BME280;10630;53.734;10.282;2023-04-10T07:51:42;101888.44;;;17.32;51.14
20942;BME280;10630;53.734;10.282;2023-04-10T07:54:09;101884.09;;;16.93;51.51
20942;BME280;10630;53.734;10.282;2023-04-10T07:56:36;101885.50;;;17.57;51.24
20942;BME280;10630;53.734;10.282;2023-04-10T07:59:04;101888.28;;;17.49;50.27
20942;BME280;10630;53.734;10.282;2023-04-10T08:01:31;101879.19;;;18.10;50.22
20942;BME280;10630;53.734;10.282;2023-04-10T08:03:58;101876.41;;;17.88;49.58
20942;BME280;10630;53.734;10.282;2023-04-10T08:06:30;101874.09;;;18.00;49.14
20942;BME280;10630;53.734;10.282;2023-04-10T08:08:59;101867.19;;;18.49;48.37
20942;BME280;10630;53.734;10.282;2023-04-10T08:11:28;101872.56;;;18.27;48.50
20942;BME280;10630;53.734;10.282;2023-04-10T08:13:56;101866.78;;;18.74;47.99
20942;BME280;10630;53.734;10.282;2023-04-10T08:16:27;101859.41;;;19.04;46.94
20942;BME280;10630;53.734;10.282;2023-04-10T08:18:55;101863.78;;;18.83;47.29
20942;BME280;10630;53.734;10.282;2023-04-10T08:21:23;101856.50;;;19.06;46.58
20942;BME280;10630;53.734;10.282;2023-04-10T08:23:53;101850.63;;;19.66;46.33
20942;BME280;10630;53.734;10.282;2023-04-10T08:26:20;101844.72;;;19.42;45.82
20942;BME280;10630;53.734;10.282;2023-04-10T08:28:48;101848.19;;;19.71;45.43
20942;BME280;10630;53.734;10.282;2023-04-10T08:31:19;101841.13;;;19.70;45.59
20942;BME280;10630;53.734;10.282;2023-04-10T08:33:47;101844.47;;;20.27;43.86
20942;BME280;10630;53.734;10.282;2023-04-10T08:36:14;101836.03;;;20.84;44.21
20942;BME280;10630;53.734;10.282;2023-04-10T08:38:45;101835.63;;;20.94;43.85
20942;BME280;10630;53.734;10.282;2023-04-10T08:41:14;101831.75;;;21.62;42.26
20942;BME280;10630;53.734;10.282;2023-04-10T08:43:40;101833.41;;;21.49;43.07
20942;BME280;10630;53.734;10.282;2023-04-10T08:46:09;101835.69;;;21.53;41.74
20942;BME280;10630;53.734;10.282;2023-04-10T08:48:54;101830.75;;;21.43;42.39
20942;BME280;10630;53.734;10.282;2023-04-10T08:51:25;101827.06;;;20.97;41.53
20942;BME280;10630;53.734;10.282;2023-04-10T08:53:56;101822.44;;;21.31;42.02
20942;BME280;10630;53.734;10.282;2023-04-10T08:56:23;101818.88;;;21.37;41.85
20942;BME280;10630;53.734;10.282;2023-04-10T08:58:51;101815.50;;;21.62;40.82
20942;BME280;10630;53.734;10.282;2023-04-10T09:01:19;101812.19;;;21.53;41.75
20942;BME280;10630;53.734;10.282;2023-04-10T09:03:47;101803.94;;;21.21;41.43
20942;BME280;10630;53.734;10.282;2023-04-10T09:06:17;101808.03;;;21.37;41.24
20942;BME280;10630;53.734;10.282;2023-04-10T09:08:45;101806.25;;;20.91;41.77
20942;BME280;10630;53.734;10.282;2023-04-10T09:11:13;101796.47;;;20.90;41.64
20942;BME280;10630;53.734;10.282;2023-04-10T09:13:42;101783.44;;;21.52;40.98
20942;BME280;10630;53.734;10.282;2023-04-10T09:16:10;101785.00;;;21.73;40.65
20942;BME280;10630;53.734;10.282;2023-04-10T09:21:09;101783.22;;;21.54;40.91
20942;BME280;10630;53.734;10.282;2023-04-10T09:23:36;101774.31;;;22.24;40.30
20942;BME280;10630;53.734;10.282;2023-04-10T09:28:58;101770.34;;;21.88;39.66
20942;BME280;10630;53.734;10.282;2023-04-10T09:31:30;101763.00;;;22.27;38.89
20942;BME280;10630;53.734;10.282;2023-04-10T09:36:48;101748.28;;;22.92;38.26
20942;BME280;10630;53.734;10.282;2023-04-10T09:39:21;101739.66;;;23.20;38.45
20942;BME280;10630;53.734;10.282;2023-04-10T09:41:58;101741.47;;;22.64;38.91
20942;BME280;10630;53.734;10.282;2023-04-10T09:44:33;101737.59;;;22.97;38.78
20942;BME280;10630;53.734;10.282;2023-04-10T09:47:20;101727.88;;;22.89;37.80
20942;BME280;10630;53.734;10.282;2023-04-10T09:54:48;101707.38;;;23.12;37.81
20942;BME280;10630;53.734;10.282;2023-04-10T09:57:18;101701.06;;;22.56;37.90
20942;BME280;10630;53.734;10.282;2023-04-10T09:59:52;101691.63;;;23.21;38.03
20942;BME280;10630;53.734;10.282;2023-04-10T10:02:19;101690.88;;;23.75;37.81
20942;BME280;10630;53.734;10.282;2023-04-10T10:04:48;101682.03;;;23.49;37.53
20942;BME280;10630;53.734;10.282;2023-04-10T10:07:20;101675.22;;;23.09;38.18
20942;BME280;10630;53.734;10.282;2023-04-10T10:09:51;101669.91;;;23.21;37.72
20942;BME280;10630;53.734;10.282;2023-04-10T10:12:34;101670.91;;;23.69;37.16
20942;BME280;10630;53.734;10.282;2023-04-10T10:15:06;101656.16;;;22.97;36.99
20942;BME280;10630;53.734;10.282;2023-04-10T10:17:38;101650.50;;;23.36;35.97
20942;BME280;10630;53.734;10.282;2023-04-10T10:20:10;101642.03;;;23.98;35.90
20942;BME280;10630;53.734;10.282;2023-04-10T10:22:39;101638.44;;;23.74;36.08
20942;BME280;10630;53.734;10.282;2023-04-10T10:25:07;101640.69;;;23.89;36.27
20942;BME280;10630;53.734;10.282;2023-04-10T10:27:36;101643.66;;;23.45;35.69
20942;BME280;10630;53.734;10.282;2023-04-10T10:30:04;101635.53;;;23.57;35.05
20942;BME280;10630;53.734;10.282;2023-04-10T10:32:50;101644.41;;;24.07;34.91
20942;BME280;10630;53.734;10.282;2023-04-10T10:35:20;101620.56;;;24.09;35.44
20942;BME280;10630;53.734;10.282;2023-04-10T10:37:50;101620.38;;;23.37;35.58
20942;BME280;10630;53.734;10.282;2023-04-10T10:41:01;101609.75;;;22.87;36.29
20942;BME280;10630;53.734;10.282;2023-04-10T10:43:23;101606.66;;;23.86;34.95
20942;BME280;10630;53.734;10.282;2023-04-10T10:45:57;101603.25;;;23.91;35.15
20942;BME280;10630;53.734;10.282;2023-04-10T10:48:26;101594.47;;;23.77;35.88
20942;BME280;10630;53.734;10.282;2023-04-10T10:53:35;101590.31;;;24.81;35.30
20942;BME280;10630;53.734;10.282;2023-04-10T10:59:02;101572.34;;;24.80;33.54
20942;BME280;10630;53.734;10.282;2023-04-10T11:01:31;101566.47;;;23.65;33.91
20942;BME280;10630;53.734;10.282;2023-04-10T11:04:00;101574.50;;;23.83;33.94
20942;BME280;10630;53.734;10.282;2023-04-10T11:06:52;101559.75;;;23.91;33.01
20942;BME280;10630;53.734;10.282;2023-04-10T11:12:06;101551.56;;;23.13;33.75
20942;BME280;10630;53.734;10.282;2023-04-10T11:14:33;101552.06;;;23.88;33.64
20942;BME280;10630;53.734;10.282;2023-04-10T11:17:02;101542.97;;;24.18;33.85
20942;BME280;10630;53.734;10.282;2023-04-10T11:20:15;101532.22;;;23.76;33.61
20942;BME280;10630;53.734;10.282;2023-04-10T11:22:18;101532.81;;;24.25;32.86
20942;BME280;10630;53.734;10.282;2023-04-10T11:27:38;101522.16;;;24.76;32.47
20942;BME280;10630;53.734;10.282;2023-04-10T11:30:29;101503.13;;;24.64;32.62
20942;BME280;10630;53.734;10.282;2023-04-10T11:33:01;101504.34;;;24.69;32.27
20942;BME280;10630;53.734;10.282;2023-04-10T11:35:30;101502.50;;;24.33;33.55
20942;BME280;10630;53.734;10.282;2023-04-10T11:41:03;101482.06;;;24.72;31.94
20942;BME280;10630;53.734;10.282;2023-04-10T11:43:32;101493.88;;;24.37;31.85
20942;BME280;10630;53.734;10.282;2023-04-10T11:46:02;101469.75;;;24.40;32.02
20942;BME280;10630;53.734;10.282;2023-04-10T11:48:30;101478.88;;;24.75;32.04
20942;BME280;10630;53.734;10.282;2023-04-10T11:51:05;101467.38;;;25.02;31.00
20942;BME280;10630;53.734;10.282;2023-04-10T11:53:33;101474.72;;;25.18;31.35
20942;BME280;10630;53.734;10.282;2023-04-10T11:56:03;101468.13;;;24.56;31.58
20942;BME280;10630;53.734;10.282;2023-04-10T11:58:34;101466.00;;;24.29;31.78
20942;BME280;10630;53.734;10.282;2023-04-10T12:01:05;101459.97;;;24.27;31.80
20942;BME280;10630;53.734;10.282;2023-04-10T12:03:37;101457.03;;;24.29;31.40
20942;BME280;10630;53.734;10.282;2023-04-10T12:06:23;101446.47;;;24.44;30.98
20942;BME280;10630;53.734;10.282;2023-04-10T12:08:53;101449.59;;;24.53;30.88
20942;BME280;10630;53.734;10.282;2023-04-10T12:11:22;101458.75;;;23.70;31.03
20942;BME280;10630;53.734;10.282;2023-04-10T12:13:54;101449.41;;;23.78;30.66
20942;BME280;10630;53.734;10.282;2023-04-10T12:16:26;101442.56;;;23.52;30.90
20942;BME280;10630;53.734;10.282;2023-04-10T12:18:55;101423.81;;;24.56;30.52
20942;BME280;10630;53.734;10.282;2023-04-10T12:21:24;101427.44;;;24.61;29.99
20942;BME280;10630;53.734;10.282;2023-04-10T12:23:52;101420.84;;;24.28;30.61
20942;BME280;10630;53.734;10.282;2023-04-10T12:26:19;101418.50;;;24.20;30.31
20942;BME280;10630;53.734;10.282;2023-04-10T12:28:54;101410.34;;;24.20;29.93
20942;BME280;10630;53.734;10.282;2023-04-10T12:31:27;101400.22;;;24.44;30.10
20942;BME280;10630;53.734;10.282;2023-04-10T12:33:54;101401.47;;;23.60;30.54
20942;BME280;10630;53.734;10.282;2023-04-10T12:36:27;101399.16;;;24.33;30.40
20942;BME280;10630;53.734;10.282;2023-04-10T12:39:00;101397.63;;;24.38;29.99
20942;BME280;10630;53.734;10.282;2023-04-10T12:41:29;101399.06;;;24.28;29.99
20942;BME280;10630;53.734;10.282;2023-04-10T12:44:08;101397.72;;;24.72;29.56
20942;BME280;10630;53.734;10.282;2023-04-10T12:46:35;101394.47;;;23.64;30.22
20942;BME280;10630;53.734;10.282;2023-04-10T12:49:13;101394.44;;;24.00;30.33
20942;BME280;10630;53.734;10.282;2023-04-10T12:51:49;101395.34;;;23.29;30.56
20942;BME280;10630;53.734;10.282;2023-04-10T12:54:34;101375.88;;;24.09;30.38
20942;BME280;10630;53.734;10.282;2023-04-10T12:57:02;101377.47;;;24.50;29.72
20942;BME280;10630;53.734;10.282;2023-04-10T12:59:30;101375.38;;;24.70;29.65
20942;BME280;10630;53.734;10.282;2023-04-10T13:01:58;101361.63;;;24.64;29.95
20942;BME280;10630;53.734;10.282;2023-04-10T13:04:28;101364.50;;;25.04;30.12
20942;BME280;10630;53.734;10.282;2023-04-10T13:06:59;101350.59;;;24.54;30.04
20942;BME280;10630;53.734;10.282;2023-04-10T13:09:26;101342.72;;;24.87;30.13
20942;BME280;10630;53.734;10.282;2023-04-10T13:11:54;101341.97;;;23.99;30.51
20942;BME280;10630;53.734;10.282;2023-04-10T13:14:40;101342.22;;;24.73;29.93
20942;BME280;10630;53.734;10.282;2023-04-10T13:17:07;101327.59;;;24.45;30.34
20942;BME280;10630;53.734;10.282;2023-04-10T13:19:37;101325.47;;;25.15;30.51
20942;BME280;10630;53.734;10.282;2023-04-10T13:22:04;101325.09;;;24.72;30.41
20942;BME280;10630;53.734;10.282;2023-04-10T13:24:31;101309.28;;;23.94;31.25
20942;BME280;10630;53.734;10.282;2023-04-10T13:26:59;101312.00;;;23.94;30.92
20942;BME280;10630;53.734;10.282;2023-04-10T13:29:27;101306.59;;;23.70;30.84